sensor_id;sensor_type;location;lat;lon;timestamp;P1;durP1;ratioP1;P2;durP2;ratioP2
55756;SDS011;41676;44.610;44.078;2022-12-07T00:01:47;12.13;;;6.70;;
55756;SDS011;41676;44.610;44.078;2022-12-07T00:06:50;12.73;;;7.13;;
55756;SDS011;41676;44.610;44.078;2022-12-07T00:11:52;13.55;;;7.35;;
55756;SDS011;41676;44.610;44.078;2022-12-07T00:16:53;12.65;;;7.10;;
55756;SDS011;41676;44.610;44.078;2022-12-07T00:21:54;13.45;;;7.82;;
55756;SDS011;41676;44.610;44.078;2022-12-07T00:26:55;16.20;;;8.27;;
55756;SDS011;41676;44.610;44.078;2022-12-07T00:31:56;16.35;;;8.07;;
55756;SDS011;41676;44.610;44.078;2022-12-07T00:36:57;16.48;;;8.02;;
55756;SDS011;41676;44.610;44.078;2022-12-07T00:41:57;14.98;;;7.93;;
55756;SDS011;41676;44.610;44.078;2022-12-07T00:46:58;14.73;;;7.93;;
55756;SDS011;41676;44.610;44.078;2022-12-07T00:51:59;17.08;;;8.60;;
55756;SDS011;41676;44.610;44.078;2022-12-07T00:57:00;13.68;;;6.80;;
55756;SDS011;41676;44.610;44.078;2022-12-07T01:02:00;16.95;;;9.18;;
55756;SDS011;41676;44.610;44.078;2022-12-07T01:07:01;19.65;;;8.50;;
55756;SDS011;41676;44.610;44.078;2022-12-07T01:12:02;16.98;;;8.57;;
55756;SDS011;41676;44.610;44.078;2022-12-07T01:17:03;18.15;;;8.70;;
55756;SDS011;41676;44.610;44.078;2022-12-07T01:22:03;15.52;;;8.45;;
55756;SDS011;41676;44.610;44.078;2022-12-07T01:27:04;17.75;;;9.18;;
55756;SDS011;41676;44.610;44.078;2022-12-07T01:32:05;18.25;;;8.50;;
55756;SDS011;41676;44.610;44.078;2022-12-07T01:37:06;17.38;;;8.90;;
55756;SDS011;41676;44.610;44.078;2022-12-07T01:42:12;18.33;;;9.20;;
55756;SDS011;41676;44.610;44.078;2022-12-07T01:47:13;22.35;;;10.88;;
55756;SDS011;41676;44.610;44.078;2022-12-07T01:52:27;20.40;;;10.00;;
55756;SDS011;41676;44.610;44.078;2022-12-07T01:57:32;21.40;;;11.20;;
55756;SDS011;41676;44.610;44.078;2022-12-07T02:02:38;20.23;;;10.52;;
55756;SDS011;41676;44.610;44.078;2022-12-07T02:08:00;25.40;;;11.98;;
55756;SDS011;41676;44.610;44.078;2022-12-07T02:34:39;26.08;;;12.43;;
55756;SDS011;41676;44.610;44.078;2022-12-07T02:39:51;26.42;;;13.02;;
55756;SDS011;41676;44.610;44.078;2022-12-07T02:44:58;21.33;;;12.65;;
55756;SDS011;41676;44.610;44.078;2022-12-07T02:50:02;26.30;;;13.13;;
55756;SDS011;41676;44.610;44.078;2022-12-07T03:00:13;24.70;;;10.95;;
55756;SDS011;41676;44.610;44.078;2022-12-07T03:21:38;26.83;;;14.40;;
55756;SDS011;41676;44.610;44.078;2022-12-07T03:26:44;25.20;;;13.07;;
55756;SDS011;41676;44.610;44.078;2022-12-07T03:31:54;27.55;;;13.50;;
55756;SDS011;41676;44.610;44.078;2022-12-07T03:37:08;27.25;;;14.25;;
55756;SDS011;41676;44.610;44.078;2022-12-07T03:42:15;23.55;;;12.63;;
55756;SDS011;41676;44.610;44.078;2022-12-07T03:52:59;26.92;;;14.15;;
55756;SDS011;41676;44.610;44.078;2022-12-07T03:58:06;30.75;;;14.63;;
55756;SDS011;41676;44.610;44.078;2022-12-07T04:03:11;28.33;;;14.68;;
55756;SDS011;41676;44.610;44.078;2022-12-07T04:08:12;24.58;;;13.98;;
55756;SDS011;41676;44.610;44.078;2022-12-07T04:13:12;33.35;;;15.05;;
55756;SDS011;41676;44.610;44.078;2022-12-07T04:18:13;27.70;;;14.15;;
55756;SDS011;41676;44.610;44.078;2022-12-07T04:23:14;30.48;;;14.30;;
55756;SDS011;41676;44.610;44.078;2022-12-07T04:28:15;33.17;;;14.40;;
55756;SDS011;41676;44.610;44.078;2022-12-07T04:33:15;27.63;;;13.35;;
55756;SDS011;41676;44.610;44.078;2022-12-07T04:38:16;24.70;;;14.00;;
55756;SDS011;41676;44.610;44.078;2022-12-07T04:43:17;24.98;;;13.73;;
55756;SDS011;41676;44.610;44.078;2022-12-07T04:48:18;23.10;;;11.38;;
55756;SDS011;41676;44.610;44.078;2022-12-07T04:53:18;29.00;;;12.85;;
55756;SDS011;41676;44.610;44.078;2022-12-07T04:58:19;26.40;;;12.30;;
55756;SDS011;41676;44.610;44.078;2022-12-07T05:03:20;28.00;;;12.70;;
55756;SDS011;41676;44.610;44.078;2022-12-07T05:08:21;23.55;;;12.05;;
55756;SDS011;41676;44.610;44.078;2022-12-07T05:13:21;29.25;;;12.85;;
55756;SDS011;41676;44.610;44.078;2022-12-07T05:18:22;22.88;;;11.13;;
55756;SDS011;41676;44.610;44.078;2022-12-07T05:23:23;19.92;;;10.57;;
55756;SDS011;41676;44.610;44.078;2022-12-07T05:28:24;28.23;;;11.25;;
55756;SDS011;41676;44.610;44.078;2022-12-07T05:33:25;20.63;;;11.68;;
55756;SDS011;41676;44.610;44.078;2022-12-07T05:38:25;17.60;;;10.57;;
55756;SDS011;41676;44.610;44.078;2022-12-07T05:43:26;19.40;;;10.80;;
55756;SDS011;41676;44.610;44.078;2022-12-07T05:48:27;18.05;;;9.98;;
55756;SDS011;41676;44.610;44.078;2022-12-07T05:53:28;17.33;;;9.02;;
55756;SDS011;41676;44.610;44.078;2022-12-07T05:58:29;15.23;;;8.43;;
55756;SDS011;41676;44.610;44.078;2022-12-07T06:03:48;16.92;;;9.45;;
55756;SDS011;41676;44.610;44.078;2022-12-07T06:08:48;18.13;;;10.00;;
55756;SDS011;41676;44.610;44.078;2022-12-07T06:13:49;17.98;;;10.10;;
55756;SDS011;41676;44.610;44.078;2022-12-07T06:18:50;18.42;;;9.63;;
55756;SDS011;41676;44.610;44.078;2022-12-07T06:23:51;17.52;;;8.70;;
55756;SDS011;41676;44.610;44.078;2022-12-07T06:28:51;17.02;;;8.90;;
55756;SDS011;41676;44.610;44.078;2022-12-07T06:33:56;17.98;;;8.77;;
55756;SDS011;41676;44.610;44.078;2022-12-07T06:38:58;16.95;;;8.52;;
55756;SDS011;41676;44.610;44.078;2022-12-07T06:43:59;14.30;;;8.40;;
55756;SDS011;41676;44.610;44.078;2022-12-07T06:49:00;16.58;;;8.13;;
55756;SDS011;41676;44.610;44.078;2022-12-07T06:54:02;15.77;;;9.30;;
55756;SDS011;41676;44.610;44.078;2022-12-07T06:59:04;13.38;;;7.28;;
55756;SDS011;41676;44.610;44.078;2022-12-07T07:04:06;17.30;;;9.55;;
55756;SDS011;41676;44.610;44.078;2022-12-07T07:09:07;14.13;;;8.98;;
55756;SDS011;41676;44.610;44.078;2022-12-07T07:14:09;18.00;;;9.77;;
55756;SDS011;41676;44.610;44.078;2022-12-07T07:19:10;14.52;;;7.63;;
55756;SDS011;41676;44.610;44.078;2022-12-07T07:24:11;17.38;;;9.50;;
55756;SDS011;41676;44.610;44.078;2022-12-07T07:29:11;19.02;;;10.07;;
55756;SDS011;41676;44.610;44.078;2022-12-07T07:34:12;18.85;;;9.73;;
55756;SDS011;41676;44.610;44.078;2022-12-07T07:39:13;16.33;;;9.50;;
55756;SDS011;41676;44.610;44.078;2022-12-07T07:44:14;20.15;;;11.05;;
55756;SDS011;41676;44.610;44.078;2022-12-07T07:49:15;17.88;;;11.00;;
55756;SDS011;41676;44.610;44.078;2022-12-07T07:54:15;20.90;;;12.05;;
55756;SDS011;41676;44.610;44.078;2022-12-07T07:59:16;20.90;;;11.15;;
55756;SDS011;41676;44.610;44.078;2022-12-07T08:04:17;21.20;;;11.07;;
55756;SDS011;41676;44.610;44.078;2022-12-07T08:09:18;24.83;;;12.40;;
55756;SDS011;41676;44.610;44.078;2022-12-07T08:14:18;26.63;;;12.98;;
55756;SDS011;41676;44.610;44.078;2022-12-07T08:19:19;22.10;;;12.88;;
55756;SDS011;41676;44.610;44.078;2022-12-07T08:24:20;29.33;;;14.48;;
55756;SDS011;41676;44.610;44.078;2022-12-07T08:29:21;23.83;;;14.05;;
55756;SDS011;41676;44.610;44.078;2022-12-07T08:34:22;27.77;;;15.25;;
55756;SDS011;41676;44.610;44.078;2022-12-07T08:39:22;26.98;;;13.98;;
55756;SDS011;41676;44.610;44.078;2022-12-07T08:44:23;23.35;;;13.40;;
55756;SDS011;41676;44.610;44.078;2022-12-07T08:49:43;26.38;;;14.30;;
55756;SDS011;41676;44.610;44.078;2022-12-07T08:54:47;24.02;;;12.80;;
55756;SDS011;41676;44.610;44.078;2022-12-07T08:59:49;25.92;;;11.18;;
55756;SDS011;41676;44.610;44.078;2022-12-07T09:04:49;23.92;;;11.30;;
55756;SDS011;41676;44.610;44.078;2022-12-07T09:09:50;21.10;;;12.00;;
55756;SDS011;41676;44.610;44.078;2022-12-07T09:14:51;25.73;;;11.13;;
55756;SDS011;41676;44.610;44.078;2022-12-07T09:19:52;22.17;;;12.02;;
55756;SDS011;41676;44.610;44.078;2022-12-07T09:24:52;19.60;;;10.85;;
55756;SDS011;41676;44.610;44.078;2022-12-07T09:29:53;23.50;;;10.50;;
55756;SDS011;41676;44.610;44.078;2022-12-07T09:34:54;17.88;;;10.68;;
55756;SDS011;41676;44.610;44.078;2022-12-07T09:39:55;15.73;;;9.43;;
55756;SDS011;41676;44.610;44.078;2022-12-07T09:44:56;17.08;;;8.77;;
55756;SDS011;41676;44.610;44.078;2022-12-07T09:50:00;18.30;;;9.05;;
55756;SDS011;41676;44.610;44.078;2022-12-07T09:55:12;15.93;;;8.05;;
55756;SDS011;41676;44.610;44.078;2022-12-07T10:00:18;13.75;;;7.85;;
55756;SDS011;41676;44.610;44.078;2022-12-07T10:05:26;14.10;;;7.95;;
55756;SDS011;41676;44.610;44.078;2022-12-07T10:10:31;18.85;;;7.38;;
55756;SDS011;41676;44.610;44.078;2022-12-07T10:15:44;12.30;;;6.90;;
55756;SDS011;41676;44.610;44.078;2022-12-07T10:26:20;11.75;;;6.90;;
55756;SDS011;41676;44.610;44.078;2022-12-07T10:31:28;14.65;;;6.88;;
55756;SDS011;41676;44.610;44.078;2022-12-07T10:36:36;13.02;;;6.10;;
55756;SDS011;41676;44.610;44.078;2022-12-07T10:41:54;19.45;;;6.15;;
55756;SDS011;41676;44.610;44.078;2022-12-07T11:07:55;15.27;;;6.20;;
55756;SDS011;41676;44.610;44.078;2022-12-07T11:23:45;15.02;;;6.30;;
55756;SDS011;41676;44.610;44.078;2022-12-07T11:34:32;17.17;;;6.53;;
55756;SDS011;41676;44.610;44.078;2022-12-07T11:39:55;25.15;;;9.10;;
55756;SDS011;41676;44.610;44.078;2022-12-07T12:06:31;25.02;;;9.25;;
55756;SDS011;41676;44.610;44.078;2022-12-07T12:22:17;12.93;;;6.85;;
55756;SDS011;41676;44.610;44.078;2022-12-07T12:32:38;15.65;;;7.47;;
55756;SDS011;41676;44.610;44.078;2022-12-07T12:37:41;15.38;;;7.43;;
55756;SDS011;41676;44.610;44.078;2022-12-07T12:42:55;22.80;;;7.60;;
55756;SDS011;41676;44.610;44.078;2022-12-07T12:48:03;18.08;;;6.93;;
55756;SDS011;41676;44.610;44.078;2022-12-07T12:53:25;25.88;;;8.63;;
55756;SDS011;41676;44.610;44.078;2022-12-07T12:58:31;21.90;;;11.20;;
55756;SDS011;41676;44.610;44.078;2022-12-07T13:03:34;16.58;;;8.15;;
55756;SDS011;41676;44.610;44.078;2022-12-07T13:08:35;20.20;;;7.65;;
55756;SDS011;41676;44.610;44.078;2022-12-07T13:13:41;29.25;;;10.57;;
55756;SDS011;41676;44.610;44.078;2022-12-07T13:18:43;22.13;;;9.25;;
55756;SDS011;41676;44.610;44.078;2022-12-07T13:33:53;15.38;;;8.23;;
55756;SDS011;41676;44.610;44.078;2022-12-07T13:38:57;19.60;;;8.13;;
55756;SDS011;41676;44.610;44.078;2022-12-07T13:44:07;19.23;;;8.63;;
55756;SDS011;41676;44.610;44.078;2022-12-07T13:49:17;16.98;;;8.57;;
55756;SDS011;41676;44.610;44.078;2022-12-07T13:54:21;15.52;;;8.40;;
55756;SDS011;41676;44.610;44.078;2022-12-07T13:59:23;29.35;;;8.85;;
55756;SDS011;41676;44.610;44.078;2022-12-07T14:04:36;16.38;;;8.88;;
55756;SDS011;41676;44.610;44.078;2022-12-07T14:09:37;17.58;;;8.18;;
55756;SDS011;41676;44.610;44.078;2022-12-07T14:14:38;29.90;;;8.93;;
55756;SDS011;41676;44.610;44.078;2022-12-07T14:19:49;20.30;;;7.85;;
55756;SDS011;41676;44.610;44.078;2022-12-07T14:30:16;20.90;;;8.73;;
55756;SDS011;41676;44.610;44.078;2022-12-07T14:35:18;19.08;;;8.90;;
55756;SDS011;41676;44.610;44.078;2022-12-07T14:40:23;33.60;;;9.43;;
55756;SDS011;41676;44.610;44.078;2022-12-07T14:45:27;18.65;;;8.00;;
55756;SDS011;41676;44.610;44.078;2022-12-07T14:50:28;28.48;;;8.98;;
55756;SDS011;41676;44.610;44.078;2022-12-07T14:55:30;25.33;;;8.82;;
55756;SDS011;41676;44.610;44.078;2022-12-07T15:00:31;24.50;;;8.40;;
55756;SDS011;41676;44.610;44.078;2022-12-07T15:05:34;15.13;;;7.78;;
55756;SDS011;41676;44.610;44.078;2022-12-07T15:10:36;16.98;;;7.18;;
55756;SDS011;41676;44.610;44.078;2022-12-07T15:15:38;21.35;;;7.93;;
55756;SDS011;41676;44.610;44.078;2022-12-07T15:20:39;25.25;;;7.60;;
55756;SDS011;41676;44.610;44.078;2022-12-07T15:25:40;15.75;;;7.85;;
55756;SDS011;41676;44.610;44.078;2022-12-07T15:30:45;17.58;;;6.90;;
55756;SDS011;41676;44.610;44.078;2022-12-07T15:35:46;15.43;;;6.55;;
55756;SDS011;41676;44.610;44.078;2022-12-07T15:40:47;21.77;;;6.82;;
55756;SDS011;41676;44.610;44.078;2022-12-07T15:45:49;19.13;;;6.50;;
55756;SDS011;41676;44.610;44.078;2022-12-07T15:50:50;20.38;;;6.43;;
55756;SDS011;41676;44.610;44.078;2022-12-07T15:55:51;15.43;;;5.80;;
55756;SDS011;41676;44.610;44.078;2022-12-07T16:00:52;16.67;;;6.25;;
55756;SDS011;41676;44.610;44.078;2022-12-07T16:05:53;12.25;;;6.22;;
55756;SDS011;41676;44.610;44.078;2022-12-07T16:10:54;10.40;;;5.40;;
55756;SDS011;41676;44.610;44.078;2022-12-07T16:15:54;11.05;;;5.53;;
55756;SDS011;41676;44.610;44.078;2022-12-07T16:20:55;14.27;;;6.15;;
55756;SDS011;41676;44.610;44.078;2022-12-07T16:26:10;17.08;;;6.65;;
55756;SDS011;41676;44.610;44.078;2022-12-07T16:31:14;15.45;;;6.68;;
55756;SDS011;41676;44.610;44.078;2022-12-07T16:36:18;15.35;;;6.50;;
55756;SDS011;41676;44.610;44.078;2022-12-07T16:41:21;21.77;;;6.07;;
55756;SDS011;41676;44.610;44.078;2022-12-07T16:46:22;13.48;;;6.57;;
55756;SDS011;41676;44.610;44.078;2022-12-07T16:51:23;12.82;;;6.90;;
55756;SDS011;41676;44.610;44.078;2022-12-07T16:56:24;11.68;;;6.55;;
55756;SDS011;41676;44.610;44.078;2022-12-07T17:01:26;15.35;;;7.00;;
55756;SDS011;41676;44.610;44.078;2022-12-07T17:06:29;11.57;;;7.03;;
55756;SDS011;41676;44.610;44.078;2022-12-07T17:11:31;17.42;;;6.97;;
55756;SDS011;41676;44.610;44.078;2022-12-07T17:16:31;15.40;;;7.32;;
55756;SDS011;41676;44.610;44.078;2022-12-07T17:21:32;15.15;;;7.18;;
55756;SDS011;41676;44.610;44.078;2022-12-07T17:26:33;13.35;;;6.85;;
55756;SDS011;41676;44.610;44.078;2022-12-07T17:31:35;12.77;;;5.88;;
55756;SDS011;41676;44.610;44.078;2022-12-07T17:36:36;12.65;;;6.15;;
55756;SDS011;41676;44.610;44.078;2022-12-07T17:41:37;10.27;;;5.97;;
55756;SDS011;41676;44.610;44.078;2022-12-07T17:46:57;15.50;;;6.35;;
55756;SDS011;41676;44.610;44.078;2022-12-07T17:51:58;11.68;;;6.20;;
55756;SDS011;41676;44.610;44.078;2022-12-07T17:57:18;12.23;;;6.75;;
55756;SDS011;41676;44.610;44.078;2022-12-07T18:02:18;13.30;;;6.88;;
55756;SDS011;41676;44.610;44.078;2022-12-07T18:07:19;17.67;;;8.05;;
55756;SDS011;41676;44.610;44.078;2022-12-07T18:12:20;15.35;;;7.35;;
55756;SDS011;41676;44.610;44.078;2022-12-07T18:17:21;12.70;;;6.85;;
55756;SDS011;41676;44.610;44.078;2022-12-07T18:22:22;12.20;;;5.95;;
55756;SDS011;41676;44.610;44.078;2022-12-07T18:27:23;13.23;;;6.47;;
55756;SDS011;41676;44.610;44.078;2022-12-07T18:32:23;8.90;;;5.35;;
55756;SDS011;41676;44.610;44.078;2022-12-07T18:37:24;12.23;;;6.55;;
55756;SDS011;41676;44.610;44.078;2022-12-07T18:42:26;12.57;;;6.03;;
55756;SDS011;41676;44.610;44.078;2022-12-07T18:47:27;12.00;;;6.18;;
55756;SDS011;41676;44.610;44.078;2022-12-07T18:52:28;12.10;;;6.28;;
55756;SDS011;41676;44.610;44.078;2022-12-07T18:57:32;11.85;;;6.70;;
55756;SDS011;41676;44.610;44.078;2022-12-07T19:02:33;11.68;;;5.80;;
55756;SDS011;41676;44.610;44.078;2022-12-07T19:07:34;11.00;;;5.18;;
55756;SDS011;41676;44.610;44.078;2022-12-07T19:12:36;11.38;;;5.90;;
55756;SDS011;41676;44.610;44.078;2022-12-07T19:17:36;10.82;;;6.20;;
55756;SDS011;41676;44.610;44.078;2022-12-07T19:22:37;11.55;;;6.25;;
55756;SDS011;41676;44.610;44.078;2022-12-07T19:27:38;10.65;;;5.63;;
55756;SDS011;41676;44.610;44.078;2022-12-07T19:32:39;12.60;;;5.68;;
55756;SDS011;41676;44.610;44.078;2022-12-07T19:37:40;8.18;;;5.53;;
55756;SDS011;41676;44.610;44.078;2022-12-07T19:42:41;8.18;;;4.55;;
55756;SDS011;41676;44.610;44.078;2022-12-07T19:47:41;9.35;;;5.05;;
55756;SDS011;41676;44.610;44.078;2022-12-07T19:52:42;10.48;;;5.20;;
55756;SDS011;41676;44.610;44.078;2022-12-07T19:57:43;10.90;;;5.20;;
55756;SDS011;41676;44.610;44.078;2022-12-07T20:02:44;9.27;;;4.32;;
55756;SDS011;41676;44.610;44.078;2022-12-07T20:07:45;8.30;;;4.45;;
55756;SDS011;41676;44.610;44.078;2022-12-07T20:12:45;8.57;;;4.07;;
55756;SDS011;41676;44.610;44.078;2022-12-07T20:18:04;8.07;;;4.03;;
55756;SDS011;41676;44.610;44.078;2022-12-07T20:23:05;8.77;;;4.28;;
55756;SDS011;41676;44.610;44.078;2022-12-07T20:28:06;8.20;;;4.03;;
55756;SDS011;41676;44.610;44.078;2022-12-07T20:33:06;6.55;;;3.88;;
55756;SDS011;41676;44.610;44.078;2022-12-07T20:38:08;8.80;;;3.58;;
55756;SDS011;41676;44.610;44.078;2022-12-07T20:43:10;8.45;;;3.25;;
55756;SDS011;41676;44.610;44.078;2022-12-07T20:48:11;7.50;;;3.13;;
55756;SDS011;41676;44.610;44.078;2022-12-07T20:53:12;6.80;;;3.10;;
55756;SDS011;41676;44.610;44.078;2022-12-07T20:58:13;6.55;;;2.85;;
55756;SDS011;41676;44.610;44.078;2022-12-07T21:03:14;6.70;;;3.45;;
55756;SDS011;41676;44.610;44.078;2022-12-07T21:08:14;9.68;;;3.80;;
55756;SDS011;41676;44.610;44.078;2022-12-07T21:13:15;8.60;;;4.15;;
55756;SDS011;41676;44.610;44.078;2022-12-07T21:18:16;10.23;;;4.18;;
55756;SDS011;41676;44.610;44.078;2022-12-07T21:23:17;7.13;;;3.78;;
55756;SDS011;41676;44.610;44.078;2022-12-07T21:28:17;6.90;;;3.10;;
55756;SDS011;41676;44.610;44.078;2022-12-07T21:33:18;6.97;;;3.83;;
55756;SDS011;41676;44.610;44.078;2022-12-07T21:38:19;9.48;;;3.17;;
55756;SDS011;41676;44.610;44.078;2022-12-07T21:43:20;6.82;;;2.92;;
55756;SDS011;41676;44.610;44.078;2022-12-07T21:48:20;6.70;;;3.60;;
55756;SDS011;41676;44.610;44.078;2022-12-07T21:53:21;13.35;;;3.92;;
55756;SDS011;41676;44.610;44.078;2022-12-07T21:58:22;8.65;;;3.50;;
55756;SDS011;41676;44.610;44.078;2022-12-07T22:03:23;6.75;;;2.97;;
55756;SDS011;41676;44.610;44.078;2022-12-07T22:08:24;5.28;;;3.15;;
55756;SDS011;41676;44.610;44.078;2022-12-07T22:13:24;6.05;;;3.08;;
55756;SDS011;41676;44.610;44.078;2022-12-07T22:18:45;5.90;;;2.67;;
55756;SDS011;41676;44.610;44.078;2022-12-07T22:23:46;6.13;;;3.10;;
55756;SDS011;41676;44.610;44.078;2022-12-07T22:28:47;7.93;;;3.40;;
55756;SDS011;41676;44.610;44.078;2022-12-07T22:33:48;8.82;;;3.40;;
55756;SDS011;41676;44.610;44.078;2022-12-07T22:38:49;7.38;;;3.33;;
55756;SDS011;41676;44.610;44.078;2022-12-07T22:43:50;5.72;;;3.42;;
55756;SDS011;41676;44.610;44.078;2022-12-07T22:48:51;8.05;;;3.45;;
55756;SDS011;41676;44.610;44.078;2022-12-07T22:53:53;5.68;;;3.30;;
55756;SDS011;41676;44.610;44.078;2022-12-07T22:58:54;11.73;;;3.65;;
55756;SDS011;41676;44.610;44.078;2022-12-07T23:03:56;8.25;;;3.17;;
55756;SDS011;41676;44.610;44.078;2022-12-07T23:09:00;9.02;;;3.53;;
55756;SDS011;41676;44.610;44.078;2022-12-07T23:14:03;8.90;;;3.42;;
55756;SDS011;41676;44.610;44.078;2022-12-07T23:19:09;7.57;;;2.80;;
55756;SDS011;41676;44.610;44.078;2022-12-07T23:24:11;6.18;;;2.95;;
55756;SDS011;41676;44.610;44.078;2022-12-07T23:29:13;7.53;;;2.78;;
55756;SDS011;41676;44.610;44.078;2022-12-07T23:34:14;9.38;;;3.00;;
55756;SDS011;41676;44.610;44.078;2022-12-07T23:39:15;5.57;;;2.60;;
55756;SDS011;41676;44.610;44.078;2022-12-07T23:44:16;7.53;;;2.95;;
55756;SDS011;41676;44.610;44.078;2022-12-07T23:49:18;9.88;;;3.00;;
55756;SDS011;41676;44.610;44.078;2022-12-07T23:54:18;4.32;;;2.20;;
55756;SDS011;41676;44.610;44.078;2022-12-07T23:59:19;5.30;;;2.60;;
